This is the latest recevied weather packets stored in our database for station/object K9CMP-13. If no packets are shown the sender has not sent any weather packets the latest 10 day(s).
| Time | Temp. | Humidity | Pressure | Rain* | Wind** | Luminosity | Snow |
|---|---|---|---|---|---|---|---|
| 1787770142 | 23.89° C | 68% | 1012.2 hPa | 0 mm | - | - | - |
| 1787769242 | 23.33° C | 70% | 1012.5 hPa | 0 mm | - | - | - |
| 1787768342 | 22.22° C | 73% | 1012.5 hPa | 0 mm | - | - | - |
| 1787766842 | 22.22° C | 74% | 1012.5 hPa | 0 mm | - | - | - |
| 1787765942 | 22.22° C | 76% | 1012.5 hPa | 0 mm | - | - | - |
| 1787765042 | 21.67° C | 77% | 1012.5 hPa | 0 mm | - | - | - |
| 1787764442 | 21.11° C | 79% | 1012.5 hPa | 0 mm | - | - | - |
| 1787762641 | 21.11° C | 78% | 1012.5 hPa | 0 mm | - | - | - |
| 1787760841 | 21.67° C | 76% | 1012.5 hPa | 0 mm | - | - | - |
| 1787759942 | 22.22° C | 75% | 1012.5 hPa | 0 mm | - | - | - |
| 1787757242 | 20° C | 83% | 1012.2 hPa | 0 mm | - | - | - |
| 1787756642 | 20° C | 84% | 1012.5 hPa | 0 mm | - | - | - |
| 1787755742 | 20.56° C | 82% | 1012.2 hPa | 0 mm | - | - | - |
| 1787754242 | 19.44° C | 85% | 1011.9 hPa | 0 mm | - | - | - |
| 1787753342 | 20° C | 84% | 1011.9 hPa | 0 mm | - | - | - |
| 1787751842 | 18.89° C | 89% | 1012.2 hPa | 0 mm | - | - | - |
| 1787749442 | 18.33° C | 92% | 1011.9 hPa | 0 mm | - | - | - |
| 1787748542 | 18.33° C | 93% | 1011.9 hPa | 0 mm | - | - | - |
| 1787747642 | 17.78° C | 94% | 1011.9 hPa | 0 mm | - | - | - |
| 1787746741 | 17.22° C | 96% | 1011.9 hPa | 0 mm | - | - | - |
| 1787745841 | 17.22° C | 98% | 1011.9 hPa | 0 mm | - | - | - |
| 1787744941 | 17.22° C | 98% | 1011.9 hPa | 0 mm | - | - | - |
| 1787744041 | 17.22° C | 98% | 1011.9 hPa | 0 mm | - | - | - |
| 1787742242 | 17.22° C | 99% | 1011.5 hPa | 0 mm | - | - | - |
| 1787741642 | 17.22° C | 99% | 1011.5 hPa | 0 mm | - | - | - |
* Rain latest hour (hover to see other rain measurements)
** Current wind speed in m/s (hover to see current wind gust speed)